Time;durP1;ratioP1;P1;durP2;ratioP2;P2;SDS_P1;SDS_P2;PMS_P1;PMS_P2;Temp;Humidity;BMP_temperature;BMP_pressure;BME280_temperature;BME280_humidity;BME280_pressure;Samples;Min_cycle;Max_cycle;Signal;HPM_P1;HPM_P2
2022/11/20 00:01:53;;;;;;;3.63;3.33;;;;;;;18.88;52.49;96468.66;5005500;28;20250;-87
2022/11/20 00:04:20;;;;;;;3.73;3.43;;;;;;;20.05;52.31;96693.06;5013594;28;20214;-87
2022/11/20 00:06:47;;;;;;;3.87;3.57;;;;;;;14.30;52.68;95791.06;5013634;28;20231;-87
2022/11/20 00:09:13;;;;;;;3.70;3.33;;;;;;;15.27;52.55;95847.75;5013165;28;20222;-86
2022/11/20 00:11:40;;;;;;;3.70;3.40;;;;;;;10.90;52.17;95102.75;5013788;28;20203;-87
2022/11/20 00:14:08;;;;;;;3.90;3.50;;;;;;;17.52;52.27;96240.75;5013562;28;20226;-87
2022/11/20 00:16:35;;;;;;;4.80;3.90;;;;;;;20.62;52.24;96767.44;5012921;28;20249;-86
2022/11/20 00:19:02;;;;;;;3.47;3.20;;;;;;;18.06;52.48;96324.25;5012914;28;20230;-86
2022/11/20 00:21:28;;;;;;;4.40;3.67;;;;;;;13.78;52.24;95611.00;5010845;28;20743;-87
2022/11/20 00:23:56;;;;;;;4.10;3.70;;;;;;;13.69;52.19;95578.81;4970642;28;20195;-86
2022/11/20 00:26:26;;;;;;;3.97;3.63;;;;;;;14.00;52.15;95672.25;4999471;28;20206;-87
2022/11/20 00:28:57;;;;;;;3.80;3.50;;;;;;;16.16;52.25;96013.94;4997049;28;20222;-86
2022/11/20 00:31:24;;;;;;;3.93;3.60;;;;;;;21.33;52.42;96892.44;5004041;28;20226;-87
2022/11/20 00:33:51;;;;;;;3.60;3.30;;;;;;;14.21;52.20;95672.88;5012426;28;20286;-87
2022/11/20 00:36:22;;;;;;;4.07;3.70;;;;;;;19.62;52.32;96642.78;5012528;28;20203;-86
2022/11/20 00:38:56;;;;;;;3.67;3.37;;;;;;;15.56;52.34;95940.53;4995587;28;20259;-89
2022/11/20 00:41:23;;;;;;;3.80;3.50;;;;;;;11.77;51.99;95377.09;4996435;28;20262;-87
2022/11/20 00:43:54;;;;;;;3.83;3.53;;;;;;;10.80;52.26;95136.75;4996471;28;20446;-86
2022/11/20 00:46:24;;;;;;;3.50;3.20;;;;;;;12.69;52.74;95543.75;4995981;28;20202;-86
2022/11/20 00:48:51;;;;;;;3.73;3.40;;;;;;;10.91;52.21;95114.50;4991935;28;20214;-88
2022/11/20 00:51:19;;;;;;;3.87;3.57;;;;;;;18.12;52.41;96441.34;5011915;28;20207;-86
2022/11/20 00:53:46;;;;;;;3.90;3.60;;;;;;;18.15;52.42;96349.06;4998495;28;20183;-87
2022/11/20 00:56:16;;;;;;;3.43;3.13;;;;;;;12.66;52.44;95503.34;4983253;28;20203;-88
2022/11/20 00:58:44;;;;;;;3.90;3.60;;;;;;;9.26;52.15;94921.59;5003330;28;20214;-87
2022/11/20 01:01:12;;;;;;;3.57;3.27;;;;;;;15.25;52.20;95927.84;4996118;28;20211;-86
2022/11/20 01:03:49;;;;;;;3.53;3.23;;;;;;;12.27;52.17;95469.34;4996735;28;20237;-88
2022/11/20 01:06:20;;;;;;;4.20;3.80;;;;;;;21.34;52.41;97011.72;4996701;28;20222;-86
2022/11/20 01:08:48;;;;;;;3.80;3.50;;;;;;;17.41;52.40;96310.72;4980858;28;20203;-86
2022/11/20 01:11:17;;;;;;;3.93;3.63;;;;;;;13.94;51.96;95729.28;5003592;28;20219;-87
2022/11/20 01:13:47;;;;;;;3.93;3.53;;;;;;;11.55;52.13;95228.81;5012116;28;20210;-86
2022/11/20 01:16:25;;;;;;;3.83;3.53;;;;;;;11.26;52.25;95188.47;5006786;28;20203;-86
2022/11/20 01:18:54;;;;;;;3.73;3.43;;;;;;;17.42;52.34;96297.19;4980591;28;20237;-89
2022/11/20 01:21:32;;;;;;;3.50;3.20;;;;;;;19.15;52.34;96698.47;4987971;28;20195;-88
2022/11/20 01:23:59;;;;;;;3.53;3.23;;;;;;;11.86;52.36;95285.97;4995812;28;20241;-87
2022/11/20 01:26:31;;;;;;;3.33;3.03;;;;;;;18.64;52.45;96461.31;4976395;28;20267;-90
2022/11/20 01:28:58;;;;;;;3.37;3.10;;;;;;;21.33;52.70;96980.22;4992969;28;20202;-87
2022/11/20 01:31:33;;;;;;;3.80;3.50;;;;;;;15.51;52.39;96007.91;4997133;28;20211;-86
2022/11/20 01:34:04;;;;;;;3.80;3.50;;;;;;;17.27;52.16;96376.34;5000371;28;20298;-87
2022/11/20 01:36:37;;;;;;;3.67;3.37;;;;;;;16.61;52.39;96153.75;4997617;28;20257;-87
2022/11/20 01:39:11;;;;;;;3.03;2.83;;;;;;;14.75;52.25;95907.78;5012353;28;20231;-86
2022/11/20 01:44:45;;;;;;;3.77;3.47;;;;;;;21.34;52.50;96906.94;4991172;28;20183;-88
2022/11/20 01:47:15;;;;;;;3.40;3.10;;;;;;;21.02;52.28;96993.13;5004950;28;20227;-88
2022/11/20 01:49:50;;;;;;;3.40;3.10;;;;;;;10.91;52.17;95130.44;4994061;28;20238;-89
2022/11/20 01:52:24;;;;;;;3.60;3.30;;;;;;;15.36;52.36;95919.72;4994958;28;20242;-86
2022/11/20 01:55:11;;;;;;;3.47;3.17;;;;;;;21.34;52.41;96912.03;4989342;28;20220;-86
2022/11/20 01:57:38;;;;;;;3.70;3.40;;;;;;;16.76;52.36;96166.00;4986933;28;20219;-88
2022/11/20 02:00:11;;;;;;;3.80;3.50;;;;;;;15.90;52.30;96006.50;5009907;28;20547;-88
2022/11/20 02:02:39;;;;;;;3.73;3.43;;;;;;;10.92;51.96;95219.19;4999913;28;20222;-89
2022/11/20 02:05:24;;;;;;;3.97;3.57;;;;;;;16.24;52.33;96040.38;4993010;28;20270;-85
2022/11/20 02:07:53;;;;;;;3.07;2.87;;;;;;;17.10;52.33;96183.78;5029778;28;20233;-87
2022/11/20 02:10:20;;;;;;;3.83;3.50;;;;;;;12.14;52.20;95336.34;5015161;28;20261;-86
2022/11/20 02:15:36;;;;;;;3.40;3.10;;;;;;;17.66;52.33;96280.91;5010024;28;20200;-85
2022/11/20 02:18:06;;;;;;;3.50;3.20;;;;;;;16.58;52.39;96168.88;4990298;28;20258;-86
2022/11/20 02:20:35;;;;;;;3.43;3.13;;;;;;;17.63;52.43;96273.22;5013396;28;20210;-88
2022/11/20 02:23:05;;;;;;;3.70;3.40;;;;;;;14.78;52.22;95825.31;5013228;28;20238;-86
2022/11/20 02:25:32;;;;;;;3.30;3.00;;;;;;;10.97;52.16;95139.81;4999218;28;20405;-86
2022/11/20 02:27:59;;;;;;;3.57;3.27;;;;;;;11.11;52.15;95151.97;5012115;28;20351;-88
2022/11/20 02:30:28;;;;;;;3.60;3.30;;;;;;;18.15;52.22;96360.06;5010012;28;20219;-87
2022/11/20 02:32:55;;;;;;;3.30;3.00;;;;;;;11.23;52.31;95176.66;5006556;28;20213;-89
2022/11/20 02:35:21;;;;;;;3.50;3.20;;;;;;;19.76;52.36;96666.03;4995493;28;20204;-87
2022/11/20 02:37:48;;;;;;;3.40;3.10;;;;;;;13.86;52.86;95670.16;5010656;28;20234;-87
2022/11/20 02:40:15;;;;;;;3.60;3.30;;;;;;;11.23;52.27;95161.59;4999259;28;20195;-87
2022/11/20 02:42:42;;;;;;;3.70;3.40;;;;;;;15.57;52.07;95899.25;5015163;28;20199;-89
2022/11/20 02:45:14;;;;;;;3.70;3.40;;;;;;;16.35;51.92;96205.41;5025369;28;20226;-86
2022/11/20 02:47:42;;;;;;;3.40;3.10;;;;;;;12.91;52.29;95441.13;4991699;28;20258;-89
2022/11/20 02:50:09;;;;;;;3.40;3.10;;;;;;;16.60;52.38;96134.28;5014219;28;20199;-85
2022/11/20 02:52:36;;;;;;;3.50;3.20;;;;;;;17.70;52.38;96262.38;5008677;28;20230;-88
2022/11/20 02:55:03;;;;;;;3.57;3.27;;;;;;;11.13;52.01;95150.38;5015302;28;20254;-88
2022/11/20 02:57:30;;;;;;;3.43;3.17;;;;;;;14.15;52.28;95687.84;5015573;28;20250;-87
2022/11/20 02:59:59;;;;;;;3.63;3.33;;;;;;;14.76;52.30;95857.28;5014439;28;20676;-88
2022/11/20 03:02:29;;;;;;;3.77;3.47;;;;;;;18.85;51.98;96471.13;5013107;28;20203;-87
2022/11/20 03:04:55;;;;;;;3.70;3.40;;;;;;;10.88;52.17;95260.94;5008865;28;20199;-85
2022/11/20 03:07:22;;;;;;;3.60;3.30;;;;;;;18.27;52.31;96359.50;4997112;28;20234;-87
2022/11/20 03:09:51;;;;;;;3.87;3.57;;;;;;;18.05;52.33;96317.44;5014032;28;20199;-86
2022/11/20 03:12:18;;;;;;;3.80;3.50;;;;;;;12.52;52.12;95514.63;4996113;28;20190;-86
2022/11/20 03:14:44;;;;;;;3.40;3.20;;;;;;;17.95;52.10;96352.78;4997650;28;20245;-86
2022/11/20 03:17:18;;;;;;;3.77;3.47;;;;;;;16.93;52.33;96121.63;5010593;28;20238;-86
2022/11/20 03:19:45;;;;;;;3.70;3.40;;;;;;;10.73;52.24;95275.50;5014445;28;20207;-87
2022/11/20 03:22:11;;;;;;;3.70;3.40;;;;;;;16.15;52.41;95991.97;4983560;28;20203;-87
2022/11/20 03:24:38;;;;;;;3.43;3.13;;;;;;;14.73;52.31;95745.94;5013654;28;20203;-87
2022/11/20 03:27:05;;;;;;;3.37;3.10;;;;;;;21.34;52.64;96871.16;5012633;28;20219;-87
2022/11/20 03:29:32;;;;;;;3.73;3.43;;;;;;;12.47;52.30;95408.69;4980329;28;20226;-89
2022/11/20 03:31:58;;;;;;;3.60;3.30;;;;;;;10.70;52.35;95081.16;5012916;28;20203;-87
2022/11/20 03:34:25;;;;;;;3.20;3.00;;;;;;;20.61;52.59;96755.53;5013879;28;20206;-88
2022/11/20 03:36:52;;;;;;;3.50;3.20;;;;;;;15.07;52.36;95842.13;5013194;28;20223;-85
2022/11/20 03:39:18;;;;;;;3.20;3.00;;;;;;;11.16;52.14;95137.06;4994131;28;20250;-83
2022/11/20 03:41:45;;;;;;;3.70;3.40;;;;;;;16.11;52.29;96000.28;5012650;28;20203;-86
2022/11/20 03:44:12;;;;;;;3.60;3.30;;;;;;;11.26;51.94;95239.59;5012962;28;20263;-87
2022/11/20 03:46:39;;;;;;;3.80;3.50;;;;;;;10.58;52.12;95041.47;5012962;28;20234;-88
2022/11/20 03:49:11;;;;;;;3.57;3.27;;;;;;;21.33;52.44;96877.09;4991619;28;20259;-86
2022/11/20 03:51:39;;;;;;;3.73;3.43;;;;;;;17.07;52.33;96145.66;4993029;28;20203;-86
2022/11/20 03:54:06;;;;;;;3.67;3.37;;;;;;;12.41;52.06;95460.56;5012083;28;20234;-87
2022/11/20 03:56:40;;;;;;;3.73;3.43;;;;;;;17.81;51.89;96402.38;5012522;28;20234;-87
2022/11/20 03:59:10;;;;;;;3.00;2.80;;;;;;;11.83;52.09;95251.50;5007333;28;20282;-88
2022/11/20 04:01:39;;;;;;;3.37;3.07;;;;;;;10.23;52.12;94985.91;5012150;28;20255;-87
2022/11/20 04:04:12;;;;;;;3.70;3.40;;;;;;;10.65;52.16;95052.53;5003848;28;20258;-88
2022/11/20 04:06:41;;;;;;;3.53;3.23;;;;;;;9.70;52.01;94965.69;5012866;28;20227;-90
2022/11/20 04:09:08;;;;;;;3.43;3.13;;;;;;;17.47;52.37;96277.88;5012360;28;20203;-87
2022/11/20 04:11:38;;;;;;;3.80;3.50;;;;;;;17.21;52.53;96170.56;5012109;28;20207;-86
2022/11/20 04:14:06;;;;;;;3.60;3.30;;;;;;;18.26;52.34;96415.41;5009684;28;20200;-86
2022/11/20 04:16:34;;;;;;;3.43;3.13;;;;;;;20.04;52.82;96700.66;5002324;28;20233;-83
2022/11/20 04:19:10;;;;;;;3.67;3.37;;;;;;;15.30;52.43;95880.72;4979230;28;20223;-86
2022/11/20 04:21:37;;;;;;;4.73;3.37;;;;;;;16.30;52.44;96007.56;4979680;28;20210;-88
2022/11/20 04:24:04;;;;;;;3.20;3.00;;;;;;;17.84;52.56;96311.84;5009672;28;20222;-82
2022/11/20 04:26:31;;;;;;;3.53;3.23;;;;;;;17.66;52.35;96240.28;4996043;28;20219;-89
2022/11/20 04:29:04;;;;;;;3.70;3.40;;;;;;;19.26;52.48;96513.66;5011099;28;20203;-87
2022/11/20 04:31:33;;;;;;;3.47;3.17;;;;;;;11.78;52.16;95247.16;4975296;28;20211;-86
2022/11/20 04:34:04;;;;;;;3.07;2.87;;;;;;;16.97;52.19;96208.03;4995272;28;20203;-86
2022/11/20 04:36:31;;;;;;;3.50;3.20;;;;;;;15.52;52.39;95893.19;4992740;28;20222;-86
2022/11/20 04:39:03;;;;;;;3.40;3.10;;;;;;;21.33;52.20;96866.88;4995399;28;20219;-86
2022/11/20 04:41:32;;;;;;;3.70;3.40;;;;;;;12.68;52.29;95471.50;4988826;28;20234;-86
2022/11/20 04:44:02;;;;;;;2.90;2.70;;;;;;;15.19;52.55;95887.19;4993012;28;20204;-87
2022/11/20 04:46:35;;;;;;;3.53;3.23;;;;;;;15.45;52.45;95944.47;4992357;28;20243;-87
2022/11/20 04:49:02;;;;;;;3.20;3.00;;;;;;;10.67;52.10;95039.25;4994058;28;20202;-87
2022/11/20 04:51:29;;;;;;;3.80;3.50;;;;;;;10.73;52.14;95054.50;5003163;28;20201;-88
2022/11/20 04:53:57;;;;;;;3.57;3.27;;;;;;;10.72;52.24;95042.72;4984797;28;20223;-86
2022/11/20 04:56:23;;;;;;;3.37;2.90;;;;;;;21.26;52.47;96852.25;5005417;28;20250;-82
2022/11/20 04:58:50;;;;;;;3.10;2.90;;;;;;;10.78;52.05;95064.69;5010698;28;20253;-85
2022/11/20 05:01:22;;;;;;;3.67;3.37;;;;;;;15.18;52.25;95915.81;5010199;28;20195;-87
2022/11/20 05:03:49;;;;;;;3.70;3.40;;;;;;;12.99;52.25;95495.97;4982441;28;20203;-86
2022/11/20 05:06:25;;;;;;;3.40;3.10;;;;;;;19.29;52.37;96517.19;5018478;28;20640;-86
2022/11/20 05:08:52;;;;;;;2.90;2.70;;;;;;;16.55;52.25;96090.19;5010282;28;20198;-86
2022/11/20 05:11:20;;;;;;;3.20;2.90;;;;;;;19.91;52.40;96644.31;5017422;28;20203;-86
2022/11/20 05:13:47;;;;;;;3.00;2.80;;;;;;;14.90;52.37;95764.09;4985907;28;20199;-82
2022/11/20 05:16:18;;;;;;;2.87;2.67;;;;;;;13.38;52.00;95596.34;5009578;28;20191;-88
2022/11/20 05:18:48;;;;;;;3.30;3.00;;;;;;;15.35;52.19;95948.38;4992243;28;20219;-86
2022/11/20 05:21:15;;;;;;;2.77;2.57;;;;;;;17.94;52.50;96287.50;5012073;28;20237;-86
2022/11/20 05:23:44;;;;;;;3.10;2.80;;;;;;;17.43;52.54;96203.28;5004750;28;20268;-87
2022/11/20 05:26:18;;;;;;;2.90;2.70;;;;;;;13.87;52.29;95695.44;5006724;28;20263;-86
2022/11/20 05:28:45;;;;;;;2.80;2.60;;;;;;;15.55;52.27;95913.53;4993841;28;20257;-85
2022/11/20 05:31:16;;;;;;;3.20;3.00;;;;;;;18.70;52.71;96430.06;4971321;28;20211;-88
2022/11/20 05:33:49;;;;;;;2.73;2.53;;;;;;;9.84;52.05;94897.69;5011278;28;20210;-86
2022/11/20 05:36:18;;;;;;;2.67;2.47;;;;;;;21.32;52.81;96873.66;5010419;28;20249;-87
2022/11/20 05:38:44;;;;;;;2.93;2.70;;;;;;;13.08;52.59;95628.19;4995051;28;20250;-88
2022/11/20 05:41:17;;;;;;;2.80;2.60;;;;;;;11.17;52.66;95277.00;5010506;28;20686;-86
2022/11/20 05:43:45;;;;;;;2.90;2.70;;;;;;;13.23;52.35;95521.94;5011200;28;20203;-87
2022/11/20 05:46:13;;;;;;;2.70;2.50;;;;;;;14.68;52.40;95793.00;4997633;28;20230;-88
2022/11/20 05:48:40;;;;;;;2.70;2.50;;;;;;;13.53;52.14;95656.53;4976828;28;20215;-86
2022/11/20 05:51:08;;;;;;;3.10;2.80;;;;;;;21.32;52.74;96870.28;5010277;28;20203;-90
2022/11/20 05:53:38;;;;;;;2.63;2.43;;;;;;;19.07;52.48;96517.47;4988276;28;20190;-87
2022/11/20 05:56:17;;;;;;;2.80;2.60;;;;;;;15.06;52.58;95837.03;4998546;28;20268;-88
2022/11/20 05:58:47;;;;;;;2.80;2.60;;;;;;;13.09;52.62;95640.03;5000944;28;20237;-88
2022/11/20 06:01:19;;;;;;;3.17;2.93;;;;;;;15.38;52.65;95928.25;5000629;28;20226;-89
2022/11/20 06:03:50;;;;;;;3.10;2.80;;;;;;;12.74;52.66;95542.22;4982712;28;20202;-88
2022/11/20 06:06:19;;;;;;;2.70;2.50;;;;;;;15.45;52.45;95868.53;4985868;28;20205;-89
2022/11/20 06:08:46;;;;;;;2.57;2.37;;;;;;;21.34;52.69;96879.69;4965501;28;20269;-86
2022/11/20 06:11:14;;;;;;;2.80;2.60;;;;;;;12.98;52.43;95492.56;4986894;28;20227;-88
2022/11/20 06:13:40;;;;;;;2.97;2.77;;;;;;;14.95;52.53;95791.22;4988645;28;20263;-90
2022/11/20 06:16:08;;;;;;;2.80;2.60;;;;;;;10.80;52.19;95166.03;5001398;28;20203;-88
2022/11/20 06:18:35;;;;;;;2.23;2.10;;;;;;;10.65;52.54;95053.41;4995356;28;20341;-88
2022/11/20 06:21:09;;;;;;;2.40;2.20;;;;;;;18.43;52.73;96420.09;4997737;28;20203;-87
2022/11/20 06:23:36;;;;;;;2.97;2.77;;;;;;;15.80;52.54;95934.47;4986066;28;20209;-88
2022/11/20 06:26:04;;;;;;;2.63;2.43;;;;;;;16.88;52.75;96223.00;5000498;28;20286;-84
2022/11/20 06:28:31;;;;;;;2.63;2.43;;;;;;;15.48;52.69;95882.13;4985586;28;20269;-88
2022/11/20 06:30:58;;;;;;;2.73;2.53;;;;;;;14.14;52.84;95735.78;4980666;28;20203;-87
2022/11/20 06:33:28;;;;;;;2.67;2.47;;;;;;;14.62;52.51;95788.63;4997097;28;20299;-87
2022/11/20 06:36:01;;;;;;;2.50;2.30;;;;;;;21.34;52.62;96894.16;4979908;28;20274;-86
2022/11/20 06:38:35;;;;;;;2.80;2.60;;;;;;;21.32;52.77;96891.56;5000657;28;20226;-88
2022/11/20 06:41:03;;;;;;;2.60;2.40;;;;;;;12.57;52.39;95392.22;4985573;28;20203;-88
2022/11/20 06:43:30;;;;;;;2.33;2.17;;;;;;;14.34;52.51;95689.25;4998050;28;20218;-91
2022/11/20 06:45:57;;;;;;;3.00;2.70;;;;;;;19.60;52.52;96605.34;4982394;28;20202;-89
2022/11/20 06:48:25;;;;;;;2.57;2.37;;;;;;;20.07;53.29;96708.38;4981846;28;20262;-84
2022/11/20 06:50:52;;;;;;;2.70;2.50;;;;;;;16.19;52.61;96019.09;4996917;28;20196;-84
2022/11/20 06:53:18;;;;;;;2.80;2.60;;;;;;;15.86;52.35;96000.47;4983005;28;20206;-92
2022/11/20 06:55:46;;;;;;;2.53;2.33;;;;;;;20.41;52.75;96747.47;4985720;28;20236;-88
2022/11/20 06:58:13;;;;;;;2.80;2.60;;;;;;;19.57;52.80;96602.75;4928020;28;20259;-88
2022/11/20 07:00:40;;;;;;;2.40;2.20;;;;;;;21.34;53.02;96907.81;4944910;28;20212;-87
2022/11/20 07:03:08;;;;;;;2.67;2.47;;;;;;;19.77;52.92;96642.25;4931273;28;20236;-88
2022/11/20 07:05:35;;;;;;;2.40;2.20;;;;;;;17.78;52.58;96303.22;4927045;28;20676;-89
2022/11/20 07:08:02;;;;;;;2.33;2.23;;;;;;;17.35;52.81;96267.38;4956341;28;20458;-92
2022/11/20 07:10:28;;;;;;;2.30;2.20;;;;;;;19.29;53.17;96562.16;4958861;28;20204;-92
2022/11/20 07:12:55;;;;;;;2.50;2.30;;;;;;;16.87;52.82;96144.31;4942299;28;20255;-87
2022/11/20 07:15:22;;;;;;;2.80;2.60;;;;;;;21.03;52.73;96882.47;4943826;28;20728;-89
2022/11/20 07:17:49;;;;;;;2.53;2.33;;;;;;;20.42;52.73;96745.75;4944000;28;20264;-87
2022/11/20 07:20:16;;;;;;;2.40;2.30;;;;;;;20.84;52.87;96824.09;4959513;28;20239;-83
2022/11/20 07:22:43;;;;;;;2.50;2.30;;;;;;;21.34;53.03;96917.16;4942972;28;20211;-86
2022/11/20 07:25:10;;;;;;;2.27;2.17;;;;;;;18.70;52.94;96458.03;4924889;28;20212;-88
2022/11/20 07:27:37;;;;;;;2.50;2.30;;;;;;;18.49;53.52;96513.50;4943765;28;20705;-88
2022/11/20 07:30:04;;;;;;;2.70;2.50;;;;;;;21.33;52.78;96923.09;4944398;28;20211;-85
2022/11/20 07:32:31;;;;;;;2.70;2.50;;;;;;;21.33;52.95;96918.00;4942146;28;20215;-88
2022/11/20 07:34:58;;;;;;;2.20;2.10;;;;;;;21.33;53.04;96925.66;4956359;28;20208;-84
2022/11/20 07:37:25;;;;;;;2.60;2.40;;;;;;;18.19;53.08;96387.28;4940167;28;20244;-89
2022/11/20 07:39:51;;;;;;;2.27;2.10;;;;;;;21.32;53.23;97060.25;4958847;28;20216;-88
2022/11/20 07:42:18;;;;;;;2.40;2.20;;;;;;;19.62;52.63;96624.06;4941990;28;20226;-90
2022/11/20 07:44:44;;;;;;;2.20;2.10;;;;;;;18.36;53.19;96511.44;4958898;28;20219;-89
2022/11/20 07:47:11;;;;;;;2.70;2.50;;;;;;;17.79;52.80;96305.78;4944314;28;20232;-88
2022/11/20 07:49:38;;;;;;;2.40;2.20;;;;;;;17.62;52.86;96279.09;4952283;28;20288;-90
2022/11/20 07:52:04;;;;;;;2.50;2.30;;;;;;;17.08;52.61;96256.50;4956077;28;20217;-90
2022/11/20 07:54:31;;;;;;;2.57;2.37;;;;;;;21.33;52.35;96916.31;4955043;28;20359;-90
2022/11/20 07:56:57;;;;;;;2.60;2.40;;;;;;;19.54;51.45;96607.78;4936199;28;20228;-87
2022/11/20 07:59:24;;;;;;;2.60;2.40;;;;;;;21.33;50.84;96918.00;4943667;28;20368;-87
2022/11/20 08:01:51;;;;;;;2.80;2.33;;;;;;;21.32;50.15;96929.06;4959969;28;20212;-91
2022/11/20 08:04:17;;;;;;;2.43;2.23;;;;;;;18.77;49.24;96572.75;4961813;28;20228;-93
2022/11/20 08:06:44;;;;;;;2.43;2.23;;;;;;;18.16;48.96;96379.59;4967944;28;20208;-89
2022/11/20 08:09:10;;;;;;;2.83;2.60;;;;;;;21.31;48.31;96924.75;4968953;28;20201;-90
2022/11/20 08:14:22;;;;;;;2.90;2.60;;;;;;;17.30;47.89;96224.09;4961154;29;20208;-90
2022/11/20 08:16:49;;;;;;;2.97;2.40;;;;;;;20.96;48.68;96890.81;4960144;28;20220;-85
2022/11/20 08:19:19;;;;;;;3.43;2.40;;;;;;;21.26;48.81;96913.59;4954181;28;20222;-89
2022/11/20 08:21:46;;;;;;;3.13;2.40;;;;;;;17.04;48.85;96201.41;4953349;28;20259;-90
2022/11/20 08:24:12;;;;;;;2.67;2.47;;;;;;;20.24;48.96;96738.56;4939660;29;20204;-88
2022/11/20 08:26:39;;;;;;;2.50;2.30;;;;;;;16.52;48.92;96123.06;4939315;28;20699;-89
2022/11/20 08:29:06;;;;;;;3.33;2.70;;;;;;;20.17;49.04;96736.72;4937659;28;20212;-88
2022/11/20 08:31:32;;;;;;;2.60;2.30;;;;;;;20.25;49.24;96750.47;4945243;28;20204;-89
2022/11/20 08:33:59;;;;;;;3.23;2.30;;;;;;;20.15;49.36;96734.94;4928621;29;20200;-88
2022/11/20 08:36:25;;;;;;;4.23;2.43;;;;;;;20.27;49.26;96765.81;4939401;29;20196;-89
2022/11/20 08:38:55;;;;;;;5.30;2.33;;;;;;;20.23;49.40;96746.19;4945200;28;20307;-90
2022/11/20 08:41:27;;;;;;;2.30;2.10;;;;;;;19.93;49.37;96696.19;4935178;29;20610;-86
2022/11/20 08:43:56;;;;;;;3.23;2.60;;;;;;;20.96;49.09;96883.13;4953572;28;20239;-87
2022/11/20 08:46:24;;;;;;;2.30;2.10;;;;;;;15.59;48.58;95955.81;4954652;28;20208;-90
2022/11/20 08:48:50;;;;;;;2.13;1.93;;;;;;;21.26;48.20;96934.03;4938481;29;20212;-89
2022/11/20 08:51:17;;;;;;;3.33;2.43;;;;;;;21.26;48.46;96923.81;4959029;28;20430;-88
2022/11/20 08:53:44;;;;;;;3.00;2.20;;;;;;;20.71;48.63;96841.69;4938451;28;20291;-89
2022/11/20 08:56:10;;;;;;;3.40;2.30;;;;;;;20.40;48.86;96783.16;4921586;29;20287;-88
2022/11/20 08:58:38;;;;;;;2.50;2.30;;;;;;;20.32;48.73;96772.78;4923090;29;20674;-88
2022/11/20 09:01:24;;;;;;;2.97;2.30;;;;;;;20.70;48.21;96830.63;4938962;29;20209;-88
2022/11/20 09:03:51;;;;;;;2.03;1.93;;;;;;;20.18;47.81;96740.09;4953675;28;20200;-89
2022/11/20 09:06:18;;;;;;;2.47;2.20;;;;;;;20.65;47.71;96813.47;4955395;28;20200;-88
2022/11/20 09:08:44;;;;;;;2.90;2.60;;;;;;;20.12;47.80;96737.38;4951496;28;20650;-89
2022/11/20 09:11:11;;;;;;;3.50;2.57;;;;;;;20.57;47.62;96807.34;4954643;29;20293;-90
2022/11/20 09:13:37;;;;;;;3.87;2.73;;;;;;;21.27;47.45;96926.41;4954825;28;20654;-88
2022/11/20 09:16:06;;;;;;;2.80;2.50;;;;;;;20.55;48.04;96799.66;4953804;28;20204;-91
2022/11/20 09:18:33;;;;;;;3.17;2.33;;;;;;;20.57;48.32;96805.66;4943807;28;20314;-87
2022/11/20 09:21:00;;;;;;;3.40;2.50;;;;;;;21.26;48.64;96927.22;4956744;28;20231;-87
2022/11/20 09:23:27;;;;;;;2.70;2.50;;;;;;;20.80;48.59;96852.97;4958981;28;20267;-89
2022/11/20 09:25:55;;;;;;;3.67;2.27;;;;;;;16.18;48.78;96044.41;4954751;29;20252;-88
2022/11/20 09:28:22;;;;;;;2.87;2.57;;;;;;;20.20;49.01;96738.47;4967119;29;20224;-87
2022/11/20 09:30:48;;;;;;;2.63;2.40;;;;;;;13.78;48.55;95686.72;4929269;29;20197;-89
2022/11/20 09:33:15;;;;;;;3.63;2.50;;;;;;;20.97;49.34;96861.91;4961377;28;20209;-90
2022/11/20 09:35:43;;;;;;;2.30;2.10;;;;;;;20.36;49.13;96777.09;4954577;29;20319;-89
2022/11/20 09:38:10;;;;;;;2.70;2.00;;;;;;;21.28;49.44;96910.22;4950897;28;20227;-90
2022/11/20 09:40:39;;;;;;;2.20;2.00;;;;;;;21.16;49.43;96883.56;4947521;29;20701;-89
2022/11/20 09:43:33;;;;;;;5.83;2.00;;;;;;;21.29;49.57;96906.00;4948389;28;20216;-90
2022/11/20 09:46:17;;;;;;;2.23;2.00;;;;;;;21.29;49.60;96906.00;4957413;28;20208;-88
2022/11/20 09:48:58;;;;;;;4.63;2.13;;;;;;;21.30;49.69;96920.50;4969238;28;20209;-88
2022/11/20 09:51:30;;;;;;;2.43;2.23;;;;;;;20.48;49.97;96772.28;4950834;29;20196;-90
2022/11/20 09:54:15;;;;;;;2.13;2.00;;;;;;;20.56;49.87;96793.72;4953140;28;20196;-89
2022/11/20 09:56:44;;;;;;;3.33;1.93;;;;;;;20.86;49.97;96835.22;4945162;28;20247;-90
2022/11/20 09:59:35;;;;;;;1.77;1.67;;;;;;;19.39;50.01;96579.41;4937536;29;20210;-93
2022/11/20 10:02:02;;;;;;;3.87;2.00;;;;;;;21.00;49.72;96855.97;4953195;29;20201;-89
2022/11/20 10:04:30;;;;;;;2.40;2.10;;;;;;;21.21;49.98;96889.63;4935864;29;20205;-89
2022/11/20 10:07:20;;;;;;;2.23;2.03;;;;;;;20.29;50.02;96736.13;4954125;28;20788;-87
2022/11/20 10:10:02;;;;;;;2.20;1.90;;;;;;;20.20;50.16;96741.88;4943208;29;20662;-91
2022/11/20 10:13:03;;;;;;;2.07;1.83;;;;;;;21.29;49.97;96906.00;4950288;29;20670;-90
2022/11/20 10:15:57;;;;;;;3.40;2.00;;;;;;;21.29;50.01;96900.88;4947078;28;20204;-90
2022/11/20 10:18:42;;;;;;;2.60;2.13;;;;;;;21.29;49.99;96896.63;4945229;28;20745;-90
2022/11/20 10:21:33;;;;;;;2.00;1.90;;;;;;;21.29;50.39;96899.16;4944562;28;20303;-90
2022/11/20 10:24:17;;;;;;;2.80;1.90;;;;;;;21.29;50.50;96896.63;4962124;28;20654;-88
2022/11/20 10:27:02;;;;;;;5.07;2.03;;;;;;;21.31;50.63;96894.09;4954284;28;20227;-90
2022/11/20 10:29:36;;;;;;;4.70;1.70;;;;;;;20.54;50.68;96762.19;4950645;28;20209;-92
2022/11/20 10:32:07;;;;;;;3.03;1.90;;;;;;;19.92;51.08;96651.13;4926879;29;20645;-90
2022/11/20 10:34:57;;;;;;;4.13;2.20;;;;;;;21.31;51.04;96889.84;4939856;29;20204;-90
2022/11/20 10:37:27;;;;;;;2.37;1.80;;;;;;;18.05;51.16;96332.69;4962700;28;20359;-88
2022/11/20 10:39:59;;;;;;;2.30;2.10;;;;;;;21.31;51.16;96888.97;4967476;28;20251;-87
2022/11/20 10:42:34;;;;;;;2.10;1.73;;;;;;;15.36;51.09;95914.66;4962715;28;20630;-89
2022/11/20 10:45:33;;;;;;;3.37;2.17;;;;;;;20.37;51.27;96821.34;4947421;29;20653;-87
2022/11/20 10:48:21;;;;;;;1.93;1.83;;;;;;;21.31;50.89;96904.31;4952341;28;20788;-88
2022/11/20 10:50:53;;;;;;;2.53;1.90;;;;;;;21.32;51.04;96895.84;4967975;29;20208;-89
2022/11/20 10:56:07;;;;;;;2.20;2.00;;;;;;;20.31;51.14;96737.03;4332736;26;20200;-94
2022/11/20 10:58:34;;;;;;;1.67;1.57;;;;;;;21.33;51.19;96906.09;4978872;28;20208;-94
2022/11/20 11:01:14;;;;;;;2.03;1.73;;;;;;;20.18;51.15;96710.38;4996035;28;20238;-93
2022/11/20 11:03:42;;;;;;;2.00;1.80;;;;;;;21.06;51.30;96851.00;4999795;28;20214;-94
2022/11/20 11:06:17;;;;;;;2.20;1.80;;;;;;;20.11;50.96;96679.56;4985039;28;20192;-93
2022/11/20 11:08:44;;;;;;;2.87;2.00;;;;;;;20.48;51.06;96746.75;4996095;28;20199;-94
2022/11/20 11:11:28;;;;;;;2.13;1.60;;;;;;;21.01;51.17;96847.47;4984080;28;20180;-93
2022/11/20 11:14:09;;;;;;;2.10;1.80;;;;;;;19.54;51.02;96585.69;4995331;28;20220;-95
2022/11/20 11:16:40;;;;;;;3.17;1.77;;;;;;;20.60;50.87;96751.25;4977079;28;20199;-94
2022/11/20 11:19:12;;;;;;;2.33;2.00;;;;;;;20.52;51.32;96740.88;4979025;28;20207;-93
2022/11/20 11:21:43;;;;;;;3.60;1.80;;;;;;;20.56;51.69;96749.47;4983757;28;20196;-93
2022/11/20 11:24:19;;;;;;;3.00;1.83;;;;;;;20.30;51.18;96700.44;4968128;28;20275;-93
2022/11/20 11:27:11;;;;;;;2.70;1.77;;;;;;;21.26;51.36;96877.81;4993907;28;20196;-93
2022/11/20 11:29:43;;;;;;;2.03;1.60;;;;;;;21.33;51.29;96885.63;4968932;28;20206;-94
2022/11/20 11:32:17;;;;;;;1.97;1.80;;;;;;;20.47;51.20;96733.94;5001345;28;20192;-94
2022/11/20 11:34:43;;;;;;;1.90;1.70;;;;;;;20.50;51.24;96731.47;4981999;28;20204;-93
2022/11/20 11:37:17;;;;;;;4.00;2.20;;;;;;;20.71;51.21;96785.50;5000542;28;20192;-94
2022/11/20 11:39:44;;;;;;;3.00;1.80;;;;;;;20.53;51.27;96745.16;4983579;28;20209;-95
2022/11/20 11:42:17;;;;;;;3.77;2.20;;;;;;;20.92;51.36;96814.91;4999246;28;20186;-95
2022/11/20 11:47:36;;;;;;;2.07;1.87;;;;;;;20.89;51.33;96804.63;4986305;28;20206;-94
2022/11/20 11:50:09;;;;;;;3.60;2.27;;;;;;;21.34;51.70;96873.69;4983367;28;20183;-94
2022/11/20 11:52:58;;;;;;;7.17;2.47;;;;;;;19.44;51.43;96578.66;5000101;28;20207;-94
2022/11/20 11:55:41;;;;;;;5.63;2.43;;;;;;;20.32;51.68;96714.09;4997152;28;20246;-93
2022/11/20 11:58:12;;;;;;;3.00;2.33;;;;;;;20.73;51.57;96769.41;4982850;28;20206;-95
2022/11/20 12:00:41;;;;;;;3.17;2.10;;;;;;;19.94;51.64;96636.72;4979824;28;20204;-94
2022/11/20 12:03:18;;;;;;;3.10;2.37;;;;;;;20.48;51.73;96738.22;4999419;28;20184;-92